Carlisle, Pennsylvania
Current Conditions -  °F | °C
As of 10:56 PM on Sunday 23 Nov 2014 (Local Time) from KCXY Reporting Station
Light Rain Light Rain  
Wind Chill: 44°   Ceiling: 1700
Heat Index: 47°   Visibility: 6mi
Dew Point: 42°   Wind: 6mph
Humidity: 83%   Direction: 120°ESE
Pressure: 29.9"   Gusts: NA
Location:  40.2°N, 77.19°W
Report Text: KCXY 240356Z AUTO 12005KT 6SM -RA BKN017 BKN025 OVC033 08/06 A2990 RMK AO2 RAB12 SLP128 P0004 T00830056
Loading
Personal Weather Stations






























Interactive Weather Map New forecast layout! Learn more

10-Day Weather Forecast

Advertisements
Track Severe Weather on mobile